sensor_id;sensor_type;location;lat;lon;timestamp;temperature;humidity
25128;DHT22;13107;51.304;6.866;2023-03-13T00:00:06;9.30;99.90
25128;DHT22;13107;51.304;6.866;2023-03-13T00:04:09;9.30;99.90
25128;DHT22;13107;51.304;6.866;2023-03-13T00:08:11;9.40;99.90
25128;DHT22;13107;51.304;6.866;2023-03-13T00:12:13;9.30;99.90
25128;DHT22;13107;51.304;6.866;2023-03-13T00:16:15;9.30;99.90
25128;DHT22;13107;51.304;6.866;2023-03-13T00:20:17;9.30;99.90
25128;DHT22;13107;51.304;6.866;2023-03-13T00:24:19;9.30;99.90
25128;DHT22;13107;51.304;6.866;2023-03-13T00:28:20;9.30;99.90
25128;DHT22;13107;51.304;6.866;2023-03-13T00:32:22;9.30;99.90
25128;DHT22;13107;51.304;6.866;2023-03-13T00:36:26;9.30;99.90
25128;DHT22;13107;51.304;6.866;2023-03-13T00:40:29;9.30;99.90
25128;DHT22;13107;51.304;6.866;2023-03-13T00:44:31;9.20;99.90
25128;DHT22;13107;51.304;6.866;2023-03-13T00:48:33;9.10;99.90
25128;DHT22;13107;51.304;6.866;2023-03-13T00:52:34;9.10;99.90
25128;DHT22;13107;51.304;6.866;2023-03-13T00:56:36;9.10;99.90
25128;DHT22;13107;51.304;6.866;2023-03-13T01:00:38;9.10;99.90
25128;DHT22;13107;51.304;6.866;2023-03-13T01:04:39;9.10;99.90
25128;DHT22;13107;51.304;6.866;2023-03-13T01:08:41;9.00;99.90
25128;DHT22;13107;51.304;6.866;2023-03-13T01:12:43;9.10;99.90
25128;DHT22;13107;51.304;6.866;2023-03-13T01:16:45;9.10;99.90
25128;DHT22;13107;51.304;6.866;2023-03-13T01:20:46;9.20;99.90
25128;DHT22;13107;51.304;6.866;2023-03-13T01:24:48;9.10;99.90
25128;DHT22;13107;51.304;6.866;2023-03-13T01:28:53;9.10;99.90
25128;DHT22;13107;51.304;6.866;2023-03-13T01:32:55;9.10;99.90
25128;DHT22;13107;51.304;6.866;2023-03-13T01:36:57;9.10;99.90
25128;DHT22;13107;51.304;6.866;2023-03-13T01:40:59;9.20;99.90
25128;DHT22;13107;51.304;6.866;2023-03-13T01:45:01;9.20;99.90
25128;DHT22;13107;51.304;6.866;2023-03-13T01:53:17;9.40;99.90
25128;DHT22;13107;51.304;6.866;2023-03-13T02:01:34;9.40;99.90
25128;DHT22;13107;51.304;6.866;2023-03-13T02:05:36;9.30;99.90
25128;DHT22;13107;51.304;6.866;2023-03-13T02:09:40;9.30;99.90
25128;DHT22;13107;51.304;6.866;2023-03-13T02:13:42;9.30;99.90
25128;DHT22;13107;51.304;6.866;2023-03-13T02:17:45;9.30;99.90
25128;DHT22;13107;51.304;6.866;2023-03-13T02:21:53;9.30;99.90
25128;DHT22;13107;51.304;6.866;2023-03-13T02:25:56;9.30;99.90
25128;DHT22;13107;51.304;6.866;2023-03-13T02:29:58;9.30;99.90
25128;DHT22;13107;51.304;6.866;2023-03-13T02:34:03;9.30;99.90
25128;DHT22;13107;51.304;6.866;2023-03-13T02:38:07;9.40;99.90
25128;DHT22;13107;51.304;6.866;2023-03-13T02:42:12;9.40;99.90
25128;DHT22;13107;51.304;6.866;2023-03-13T02:46:18;9.40;99.90
25128;DHT22;13107;51.304;6.866;2023-03-13T02:50:20;9.50;99.90
25128;DHT22;13107;51.304;6.866;2023-03-13T02:54:28;9.50;99.90
25128;DHT22;13107;51.304;6.866;2023-03-13T02:58:41;9.50;99.90
25128;DHT22;13107;51.304;6.866;2023-03-13T03:02:51;9.60;99.90
25128;DHT22;13107;51.304;6.866;2023-03-13T03:06:53;9.60;99.90
25128;DHT22;13107;51.304;6.866;2023-03-13T03:10:54;9.70;99.90
25128;DHT22;13107;51.304;6.866;2023-03-13T03:14:56;9.70;99.90
25128;DHT22;13107;51.304;6.866;2023-03-13T03:18:58;9.70;99.90
25128;DHT22;13107;51.304;6.866;2023-03-13T03:22:59;9.70;99.90
25128;DHT22;13107;51.304;6.866;2023-03-13T03:27:01;9.80;99.90
25128;DHT22;13107;51.304;6.866;2023-03-13T03:31:07;9.80;99.90
25128;DHT22;13107;51.304;6.866;2023-03-13T03:35:09;9.90;99.90
25128;DHT22;13107;51.304;6.866;2023-03-13T03:39:11;9.90;99.90
25128;DHT22;13107;51.304;6.866;2023-03-13T03:43:13;9.90;99.90
25128;DHT22;13107;51.304;6.866;2023-03-13T03:47:14;10.00;99.90
25128;DHT22;13107;51.304;6.866;2023-03-13T03:51:16;10.00;99.90
25128;DHT22;13107;51.304;6.866;2023-03-13T03:55:19;10.00;99.90
25128;DHT22;13107;51.304;6.866;2023-03-13T03:59:21;10.10;99.90
25128;DHT22;13107;51.304;6.866;2023-03-13T04:03:23;10.00;99.90
25128;DHT22;13107;51.304;6.866;2023-03-13T04:07:25;10.10;99.90
25128;DHT22;13107;51.304;6.866;2023-03-13T04:11:26;10.10;99.90
25128;DHT22;13107;51.304;6.866;2023-03-13T04:15:28;10.10;99.90
25128;DHT22;13107;51.304;6.866;2023-03-13T04:19:30;10.20;99.90
25128;DHT22;13107;51.304;6.866;2023-03-13T04:23:31;10.20;99.90
25128;DHT22;13107;51.304;6.866;2023-03-13T04:27:33;10.20;99.90
25128;DHT22;13107;51.304;6.866;2023-03-13T04:31:35;10.20;99.90
25128;DHT22;13107;51.304;6.866;2023-03-13T04:35:37;10.30;99.90
25128;DHT22;13107;51.304;6.866;2023-03-13T04:39:39;10.20;99.90
25128;DHT22;13107;51.304;6.866;2023-03-13T04:43:40;10.20;99.90
25128;DHT22;13107;51.304;6.866;2023-03-13T04:47:42;10.20;99.90
25128;DHT22;13107;51.304;6.866;2023-03-13T04:51:44;10.30;99.90
25128;DHT22;13107;51.304;6.866;2023-03-13T04:55:46;10.40;99.90
25128;DHT22;13107;51.304;6.866;2023-03-13T04:59:48;10.30;99.90
25128;DHT22;13107;51.304;6.866;2023-03-13T05:03:50;10.30;99.90
25128;DHT22;13107;51.304;6.866;2023-03-13T05:07:52;10.60;99.90
25128;DHT22;13107;51.304;6.866;2023-03-13T05:11:54;10.70;99.90
25128;DHT22;13107;51.304;6.866;2023-03-13T05:15:58;11.00;99.90
25128;DHT22;13107;51.304;6.866;2023-03-13T05:20:00;11.20;99.90
25128;DHT22;13107;51.304;6.866;2023-03-13T05:24:02;11.30;99.90
25128;DHT22;13107;51.304;6.866;2023-03-13T05:28:04;11.40;99.90
25128;DHT22;13107;51.304;6.866;2023-03-13T05:32:06;11.50;99.90
25128;DHT22;13107;51.304;6.866;2023-03-13T05:36:07;11.70;99.90
25128;DHT22;13107;51.304;6.866;2023-03-13T05:40:10;11.70;99.90
25128;DHT22;13107;51.304;6.866;2023-03-13T05:44:11;11.80;99.90
25128;DHT22;13107;51.304;6.866;2023-03-13T05:48:13;11.80;99.90
25128;DHT22;13107;51.304;6.866;2023-03-13T05:52:15;11.90;99.90
25128;DHT22;13107;51.304;6.866;2023-03-13T05:56:16;11.90;99.90
25128;DHT22;13107;51.304;6.866;2023-03-13T06:00:18;12.00;99.90
25128;DHT22;13107;51.304;6.866;2023-03-13T06:04:20;12.00;99.90
25128;DHT22;13107;51.304;6.866;2023-03-13T06:08:22;12.00;99.90
25128;DHT22;13107;51.304;6.866;2023-03-13T06:12:23;12.00;99.90
25128;DHT22;13107;51.304;6.866;2023-03-13T06:16:25;12.10;99.90
25128;DHT22;13107;51.304;6.866;2023-03-13T06:20:27;12.10;99.90
25128;DHT22;13107;51.304;6.866;2023-03-13T06:24:29;12.10;99.90
25128;DHT22;13107;51.304;6.866;2023-03-13T06:28:30;12.20;99.90
25128;DHT22;13107;51.304;6.866;2023-03-13T06:32:32;12.30;99.90
25128;DHT22;13107;51.304;6.866;2023-03-13T06:36:35;12.40;99.90
25128;DHT22;13107;51.304;6.866;2023-03-13T06:40:37;12.40;99.90
25128;DHT22;13107;51.304;6.866;2023-03-13T06:44:39;12.50;99.90
25128;DHT22;13107;51.304;6.866;2023-03-13T06:48:42;12.60;99.90
25128;DHT22;13107;51.304;6.866;2023-03-13T06:52:45;12.70;99.90
25128;DHT22;13107;51.304;6.866;2023-03-13T06:56:48;12.70;99.90
25128;DHT22;13107;51.304;6.866;2023-03-13T07:00:49;12.70;99.90
25128;DHT22;13107;51.304;6.866;2023-03-13T07:04:51;12.70;99.90
25128;DHT22;13107;51.304;6.866;2023-03-13T07:08:53;12.80;99.90
25128;DHT22;13107;51.304;6.866;2023-03-13T07:12:55;12.80;99.90
25128;DHT22;13107;51.304;6.866;2023-03-13T07:16:58;12.80;99.90
25128;DHT22;13107;51.304;6.866;2023-03-13T07:21:01;12.80;99.90
25128;DHT22;13107;51.304;6.866;2023-03-13T07:25:06;12.90;99.90
25128;DHT22;13107;51.304;6.866;2023-03-13T07:29:07;13.00;99.90
25128;DHT22;13107;51.304;6.866;2023-03-13T07:33:09;13.00;99.90
25128;DHT22;13107;51.304;6.866;2023-03-13T07:37:12;13.00;99.90
25128;DHT22;13107;51.304;6.866;2023-03-13T07:41:14;13.10;99.90
25128;DHT22;13107;51.304;6.866;2023-03-13T07:45:15;13.10;99.90
25128;DHT22;13107;51.304;6.866;2023-03-13T07:49:17;13.10;99.90
25128;DHT22;13107;51.304;6.866;2023-03-13T07:53:19;13.10;99.90
25128;DHT22;13107;51.304;6.866;2023-03-13T07:57:23;13.10;99.90
25128;DHT22;13107;51.304;6.866;2023-03-13T08:01:26;13.10;99.90
25128;DHT22;13107;51.304;6.866;2023-03-13T08:05:31;13.20;99.90
25128;DHT22;13107;51.304;6.866;2023-03-13T08:09:33;13.20;99.90
25128;DHT22;13107;51.304;6.866;2023-03-13T08:13:35;13.20;99.90
25128;DHT22;13107;51.304;6.866;2023-03-13T08:17:36;13.20;99.90
25128;DHT22;13107;51.304;6.866;2023-03-13T08:21:38;13.20;99.90
25128;DHT22;13107;51.304;6.866;2023-03-13T08:25:40;13.20;99.90
25128;DHT22;13107;51.304;6.866;2023-03-13T08:29:42;13.30;99.90
25128;DHT22;13107;51.304;6.866;2023-03-13T08:33:44;13.40;99.90
25128;DHT22;13107;51.304;6.866;2023-03-13T08:37:46;13.40;99.90
25128;DHT22;13107;51.304;6.866;2023-03-13T08:41:48;13.50;99.90
25128;DHT22;13107;51.304;6.866;2023-03-13T08:45:54;13.40;99.90
25128;DHT22;13107;51.304;6.866;2023-03-13T08:49:57;13.50;99.90
25128;DHT22;13107;51.304;6.866;2023-03-13T08:54:00;13.60;99.90
25128;DHT22;13107;51.304;6.866;2023-03-13T08:58:02;13.70;99.90
25128;DHT22;13107;51.304;6.866;2023-03-13T09:02:03;13.50;99.90
25128;DHT22;13107;51.304;6.866;2023-03-13T09:06:07;13.50;99.90
25128;DHT22;13107;51.304;6.866;2023-03-13T09:10:09;13.60;99.90
25128;DHT22;13107;51.304;6.866;2023-03-13T09:14:11;13.70;99.90
25128;DHT22;13107;51.304;6.866;2023-03-13T09:18:13;13.70;99.90
25128;DHT22;13107;51.304;6.866;2023-03-13T09:22:15;13.80;99.90
25128;DHT22;13107;51.304;6.866;2023-03-13T09:26:18;13.80;99.90
25128;DHT22;13107;51.304;6.866;2023-03-13T09:30:23;13.70;99.90
25128;DHT22;13107;51.304;6.866;2023-03-13T09:34:25;13.60;99.90
25128;DHT22;13107;51.304;6.866;2023-03-13T09:38:28;13.70;99.90
25128;DHT22;13107;51.304;6.866;2023-03-13T09:43:10;13.80;99.90
25128;DHT22;13107;51.304;6.866;2023-03-13T09:51:34;14.00;99.90
25128;DHT22;13107;51.304;6.866;2023-03-13T09:55:37;13.80;99.90
25128;DHT22;13107;51.304;6.866;2023-03-13T10:04:19;13.70;99.90
25128;DHT22;13107;51.304;6.866;2023-03-13T10:08:35;14.00;99.90
25128;DHT22;13107;51.304;6.866;2023-03-13T10:12:42;14.40;99.90
25128;DHT22;13107;51.304;6.866;2023-03-13T10:20:58;14.60;99.90
25128;DHT22;13107;51.304;6.866;2023-03-13T10:29:23;14.50;99.90
25128;DHT22;13107;51.304;6.866;2023-03-13T10:33:27;14.60;99.90
25128;DHT22;13107;51.304;6.866;2023-03-13T10:37:40;14.50;99.90
25128;DHT22;13107;51.304;6.866;2023-03-13T10:41:43;14.70;99.90
25128;DHT22;13107;51.304;6.866;2023-03-13T10:45:46;14.70;99.90
25128;DHT22;13107;51.304;6.866;2023-03-13T10:49:51;14.80;99.90
25128;DHT22;13107;51.304;6.866;2023-03-13T10:53:55;14.80;99.90
25128;DHT22;13107;51.304;6.866;2023-03-13T10:58:01;14.90;99.90
25128;DHT22;13107;51.304;6.866;2023-03-13T11:06:30;15.20;99.90
25128;DHT22;13107;51.304;6.866;2023-03-13T11:10:32;15.20;99.90
25128;DHT22;13107;51.304;6.866;2023-03-13T11:14:37;15.30;99.90
25128;DHT22;13107;51.304;6.866;2023-03-13T11:32:20;15.80;99.90
25128;DHT22;13107;51.304;6.866;2023-03-13T11:36:37;16.40;99.90
25128;DHT22;13107;51.304;6.866;2023-03-13T11:49:25;17.00;99.90
25128;DHT22;13107;51.304;6.866;2023-03-13T11:58:29;18.60;99.90
25128;DHT22;13107;51.304;6.866;2023-03-13T12:02:37;20.30;99.90
25128;DHT22;13107;51.304;6.866;2023-03-13T12:06:46;19.90;99.90
25128;DHT22;13107;51.304;6.866;2023-03-13T12:15:15;18.10;99.90
25128;DHT22;13107;51.304;6.866;2023-03-13T12:19:30;17.20;99.90
25128;DHT22;13107;51.304;6.866;2023-03-13T12:23:41;17.90;99.90
25128;DHT22;13107;51.304;6.866;2023-03-13T12:27:52;17.70;99.90
25128;DHT22;13107;51.304;6.866;2023-03-13T12:44:52;16.40;99.90
25128;DHT22;13107;51.304;6.866;2023-03-13T13:01:50;17.00;99.90
25128;DHT22;13107;51.304;6.866;2023-03-13T13:06:12;16.90;99.90
25128;DHT22;13107;51.304;6.866;2023-03-13T13:10:21;17.20;99.90
25128;DHT22;13107;51.304;6.866;2023-03-13T13:18:31;16.50;99.90
25128;DHT22;13107;51.304;6.866;2023-03-13T13:26:38;16.20;99.90
25128;DHT22;13107;51.304;6.866;2023-03-13T13:30:52;16.70;99.90
25128;DHT22;13107;51.304;6.866;2023-03-13T13:39:38;16.50;99.90
25128;DHT22;13107;51.304;6.866;2023-03-13T13:43:47;16.50;99.90
25128;DHT22;13107;51.304;6.866;2023-03-13T13:47:49;16.50;99.90
25128;DHT22;13107;51.304;6.866;2023-03-13T13:56:02;17.30;99.90
25128;DHT22;13107;51.304;6.866;2023-03-13T14:00:26;17.00;99.90
25128;DHT22;13107;51.304;6.866;2023-03-13T14:13:23;16.30;99.90
25128;DHT22;13107;51.304;6.866;2023-03-13T14:17:25;16.10;99.90
25128;DHT22;13107;51.304;6.866;2023-03-13T14:21:27;16.10;99.90
25128;DHT22;13107;51.304;6.866;2023-03-13T14:29:59;16.40;99.90
25128;DHT22;13107;51.304;6.866;2023-03-13T14:34:11;16.40;99.90
25128;DHT22;13107;51.304;6.866;2023-03-13T14:38:21;16.40;99.90
25128;DHT22;13107;51.304;6.866;2023-03-13T14:42:23;16.40;99.90
25128;DHT22;13107;51.304;6.866;2023-03-13T14:46:32;16.30;99.90
25128;DHT22;13107;51.304;6.866;2023-03-13T14:50:34;16.00;99.90
25128;DHT22;13107;51.304;6.866;2023-03-13T14:54:54;16.00;99.90
25128;DHT22;13107;51.304;6.866;2023-03-13T14:59:13;16.10;99.90
25128;DHT22;13107;51.304;6.866;2023-03-13T15:07:19;16.10;99.90
25128;DHT22;13107;51.304;6.866;2023-03-13T15:11:29;16.10;99.90
25128;DHT22;13107;51.304;6.866;2023-03-13T15:15:32;16.10;99.90
25128;DHT22;13107;51.304;6.866;2023-03-13T15:19:34;16.00;99.90
25128;DHT22;13107;51.304;6.866;2023-03-13T15:23:35;16.00;99.90
25128;DHT22;13107;51.304;6.866;2023-03-13T15:27:37;15.80;99.90
25128;DHT22;13107;51.304;6.866;2023-03-13T15:31:39;15.80;99.90
25128;DHT22;13107;51.304;6.866;2023-03-13T15:35:41;16.20;99.90
25128;DHT22;13107;51.304;6.866;2023-03-13T15:39:44;16.30;99.90
25128;DHT22;13107;51.304;6.866;2023-03-13T15:43:46;16.10;99.90
25128;DHT22;13107;51.304;6.866;2023-03-13T15:47:48;15.90;99.90
25128;DHT22;13107;51.304;6.866;2023-03-13T15:51:50;16.00;99.90
25128;DHT22;13107;51.304;6.866;2023-03-13T15:55:54;16.20;99.90
25128;DHT22;13107;51.304;6.866;2023-03-13T15:59:56;16.20;99.90
25128;DHT22;13107;51.304;6.866;2023-03-13T16:03:57;16.10;99.90
25128;DHT22;13107;51.304;6.866;2023-03-13T16:08:00;16.00;99.90
25128;DHT22;13107;51.304;6.866;2023-03-13T16:12:02;15.90;99.90
25128;DHT22;13107;51.304;6.866;2023-03-13T16:16:35;15.80;99.90
25128;DHT22;13107;51.304;6.866;2023-03-13T16:20:38;15.80;99.90
25128;DHT22;13107;51.304;6.866;2023-03-13T16:24:40;15.70;99.90
25128;DHT22;13107;51.304;6.866;2023-03-13T16:28:42;15.50;99.90
25128;DHT22;13107;51.304;6.866;2023-03-13T16:32:44;15.40;99.90
25128;DHT22;13107;51.304;6.866;2023-03-13T16:36:46;15.20;99.90
25128;DHT22;13107;51.304;6.866;2023-03-13T16:40:48;15.10;99.90
25128;DHT22;13107;51.304;6.866;2023-03-13T16:44:50;15.00;99.90
25128;DHT22;13107;51.304;6.866;2023-03-13T16:48:52;14.90;99.90
25128;DHT22;13107;51.304;6.866;2023-03-13T16:52:53;14.90;99.90
25128;DHT22;13107;51.304;6.866;2023-03-13T16:56:55;14.90;99.90
25128;DHT22;13107;51.304;6.866;2023-03-13T17:00:59;14.80;99.90
25128;DHT22;13107;51.304;6.866;2023-03-13T17:05:07;14.60;99.90
25128;DHT22;13107;51.304;6.866;2023-03-13T17:09:12;14.70;99.90
25128;DHT22;13107;51.304;6.866;2023-03-13T17:13:15;14.50;99.90
25128;DHT22;13107;51.304;6.866;2023-03-13T17:17:21;14.40;99.90
25128;DHT22;13107;51.304;6.866;2023-03-13T17:21:25;14.40;99.90
25128;DHT22;13107;51.304;6.866;2023-03-13T17:25:27;14.40;99.90
25128;DHT22;13107;51.304;6.866;2023-03-13T17:29:28;14.30;99.90
25128;DHT22;13107;51.304;6.866;2023-03-13T17:33:30;14.20;99.90
25128;DHT22;13107;51.304;6.866;2023-03-13T17:37:32;14.00;99.90
25128;DHT22;13107;51.304;6.866;2023-03-13T17:41:35;14.00;99.90
25128;DHT22;13107;51.304;6.866;2023-03-13T17:45:37;14.00;99.90
25128;DHT22;13107;51.304;6.866;2023-03-13T17:49:39;14.10;99.90
25128;DHT22;13107;51.304;6.866;2023-03-13T17:53:40;13.90;99.90
25128;DHT22;13107;51.304;6.866;2023-03-13T17:57:42;13.90;99.90
25128;DHT22;13107;51.304;6.866;2023-03-13T18:01:44;13.70;99.90
25128;DHT22;13107;51.304;6.866;2023-03-13T18:05:46;13.70;99.90
25128;DHT22;13107;51.304;6.866;2023-03-13T18:09:48;13.70;99.90
25128;DHT22;13107;51.304;6.866;2023-03-13T18:13:50;13.50;99.90
25128;DHT22;13107;51.304;6.866;2023-03-13T18:17:52;13.50;99.90
25128;DHT22;13107;51.304;6.866;2023-03-13T18:21:54;13.40;99.90
25128;DHT22;13107;51.304;6.866;2023-03-13T18:25:56;13.50;99.90
25128;DHT22;13107;51.304;6.866;2023-03-13T18:29:58;13.50;99.90
25128;DHT22;13107;51.304;6.866;2023-03-13T18:34:02;13.30;99.90
25128;DHT22;13107;51.304;6.866;2023-03-13T18:38:03;13.30;99.90
25128;DHT22;13107;51.304;6.866;2023-03-13T18:42:06;13.30;99.90
25128;DHT22;13107;51.304;6.866;2023-03-13T18:46:25;13.30;99.90
25128;DHT22;13107;51.304;6.866;2023-03-13T18:50:30;13.30;99.90
25128;DHT22;13107;51.304;6.866;2023-03-13T18:54:33;13.30;99.90
25128;DHT22;13107;51.304;6.866;2023-03-13T18:58:34;13.20;99.90
25128;DHT22;13107;51.304;6.866;2023-03-13T19:02:36;13.30;99.90
25128;DHT22;13107;51.304;6.866;2023-03-13T19:06:38;13.10;99.90
25128;DHT22;13107;51.304;6.866;2023-03-13T19:10:39;13.10;99.90
25128;DHT22;13107;51.304;6.866;2023-03-13T19:14:42;13.10;99.90
25128;DHT22;13107;51.304;6.866;2023-03-13T19:18:44;12.90;99.90
25128;DHT22;13107;51.304;6.866;2023-03-13T19:22:47;12.90;99.90
25128;DHT22;13107;51.304;6.866;2023-03-13T19:26:52;13.00;99.90
25128;DHT22;13107;51.304;6.866;2023-03-13T19:30:58;13.00;99.90
25128;DHT22;13107;51.304;6.866;2023-03-13T19:35:00;13.00;99.90
25128;DHT22;13107;51.304;6.866;2023-03-13T19:39:10;12.90;99.90
25128;DHT22;13107;51.304;6.866;2023-03-13T19:43:12;12.80;99.90
25128;DHT22;13107;51.304;6.866;2023-03-13T19:47:14;12.80;99.90
25128;DHT22;13107;51.304;6.866;2023-03-13T19:51:16;12.70;99.90
25128;DHT22;13107;51.304;6.866;2023-03-13T19:55:18;12.70;99.90
25128;DHT22;13107;51.304;6.866;2023-03-13T19:59:21;12.50;99.90
25128;DHT22;13107;51.304;6.866;2023-03-13T20:03:24;12.50;99.90
25128;DHT22;13107;51.304;6.866;2023-03-13T20:07:25;12.50;99.90
25128;DHT22;13107;51.304;6.866;2023-03-13T20:11:28;12.50;99.90
25128;DHT22;13107;51.304;6.866;2023-03-13T20:15:30;12.40;99.90
25128;DHT22;13107;51.304;6.866;2023-03-13T20:19:32;12.40;99.90
25128;DHT22;13107;51.304;6.866;2023-03-13T20:23:34;12.30;99.90
25128;DHT22;13107;51.304;6.866;2023-03-13T20:27:35;12.20;99.90
25128;DHT22;13107;51.304;6.866;2023-03-13T20:31:37;12.20;99.90
25128;DHT22;13107;51.304;6.866;2023-03-13T20:35:40;12.20;99.90
25128;DHT22;13107;51.304;6.866;2023-03-13T20:39:41;12.10;99.90
25128;DHT22;13107;51.304;6.866;2023-03-13T20:43:43;12.10;99.90
25128;DHT22;13107;51.304;6.866;2023-03-13T20:47:45;12.10;99.90
25128;DHT22;13107;51.304;6.866;2023-03-13T20:51:46;12.00;99.90
25128;DHT22;13107;51.304;6.866;2023-03-13T20:55:48;12.00;99.90
25128;DHT22;13107;51.304;6.866;2023-03-13T20:59:50;12.00;99.90
25128;DHT22;13107;51.304;6.866;2023-03-13T21:03:52;12.00;99.90
25128;DHT22;13107;51.304;6.866;2023-03-13T21:07:54;12.00;99.90
25128;DHT22;13107;51.304;6.866;2023-03-13T21:11:56;11.90;99.90
25128;DHT22;13107;51.304;6.866;2023-03-13T21:16:01;11.90;99.90
25128;DHT22;13107;51.304;6.866;2023-03-13T21:20:04;11.90;99.90
25128;DHT22;13107;51.304;6.866;2023-03-13T21:24:13;11.90;99.90
25128;DHT22;13107;51.304;6.866;2023-03-13T21:28:14;11.90;99.90
25128;DHT22;13107;51.304;6.866;2023-03-13T21:32:17;11.90;99.90
25128;DHT22;13107;51.304;6.866;2023-03-13T21:36:20;12.00;99.90
25128;DHT22;13107;51.304;6.866;2023-03-13T21:40:22;11.90;99.90
25128;DHT22;13107;51.304;6.866;2023-03-13T21:44:24;11.90;99.90
25128;DHT22;13107;51.304;6.866;2023-03-13T21:48:28;11.90;99.90
25128;DHT22;13107;51.304;6.866;2023-03-13T21:52:29;11.80;99.90
25128;DHT22;13107;51.304;6.866;2023-03-13T21:56:34;11.80;99.90
25128;DHT22;13107;51.304;6.866;2023-03-13T22:00:36;11.80;99.90
25128;DHT22;13107;51.304;6.866;2023-03-13T22:04:39;11.70;99.90
25128;DHT22;13107;51.304;6.866;2023-03-13T22:08:41;11.70;99.90
25128;DHT22;13107;51.304;6.866;2023-03-13T22:12:43;11.70;99.90
25128;DHT22;13107;51.304;6.866;2023-03-13T22:16:44;11.60;99.90
25128;DHT22;13107;51.304;6.866;2023-03-13T22:20:46;11.50;99.90
25128;DHT22;13107;51.304;6.866;2023-03-13T22:24:48;11.50;99.90
25128;DHT22;13107;51.304;6.866;2023-03-13T22:28:50;11.50;99.90
25128;DHT22;13107;51.304;6.866;2023-03-13T22:32:52;11.50;99.90
25128;DHT22;13107;51.304;6.866;2023-03-13T22:36:53;11.40;99.90
25128;DHT22;13107;51.304;6.866;2023-03-13T22:41:00;11.30;99.90
25128;DHT22;13107;51.304;6.866;2023-03-13T22:45:03;11.20;99.90
25128;DHT22;13107;51.304;6.866;2023-03-13T22:49:05;11.20;99.90
25128;DHT22;13107;51.304;6.866;2023-03-13T22:53:06;11.20;99.90
25128;DHT22;13107;51.304;6.866;2023-03-13T22:57:08;11.10;99.90
25128;DHT22;13107;51.304;6.866;2023-03-13T23:01:15;11.10;99.90
25128;DHT22;13107;51.304;6.866;2023-03-13T23:05:17;11.10;99.90
25128;DHT22;13107;51.304;6.866;2023-03-13T23:09:19;11.10;99.90
25128;DHT22;13107;51.304;6.866;2023-03-13T23:13:21;11.10;99.90
25128;DHT22;13107;51.304;6.866;2023-03-13T23:17:23;11.00;99.90
25128;DHT22;13107;51.304;6.866;2023-03-13T23:21:24;10.90;99.90
25128;DHT22;13107;51.304;6.866;2023-03-13T23:25:26;10.80;99.90
25128;DHT22;13107;51.304;6.866;2023-03-13T23:29:28;10.90;99.90
25128;DHT22;13107;51.304;6.866;2023-03-13T23:33:29;10.80;99.90
25128;DHT22;13107;51.304;6.866;2023-03-13T23:37:31;10.90;99.90
25128;DHT22;13107;51.304;6.866;2023-03-13T23:41:36;10.90;99.90
25128;DHT22;13107;51.304;6.866;2023-03-13T23:45:37;10.90;99.90
25128;DHT22;13107;51.304;6.866;2023-03-13T23:49:39;11.00;99.90
25128;DHT22;13107;51.304;6.866;2023-03-13T23:53:41;11.10;99.90
25128;DHT22;13107;51.304;6.866;2023-03-13T23:57:46;11.10;99.90
